createdAt,value
2024-02-20T00:00:32.948Z,3.05
2024-02-20T00:03:20.844Z,3.03
2024-02-20T00:05:48.727Z,3.05
2024-02-20T00:08:16.873Z,3.07
2024-02-20T00:10:44.962Z,3.09
2024-02-20T00:13:13.892Z,3.11
2024-02-20T00:15:42.856Z,3.13
2024-02-20T00:18:11.553Z,3.17
2024-02-20T00:20:41.266Z,3.19
2024-02-20T00:23:11.735Z,3.19
2024-02-20T00:25:44.097Z,3.19
2024-02-20T00:28:13.355Z,3.23
2024-02-20T00:30:41.608Z,3.25
2024-02-20T00:33:09.886Z,3.26
2024-02-20T00:35:38.000Z,3.26
2024-02-20T00:38:05.952Z,3.24
2024-02-20T00:40:33.816Z,3.22
2024-02-20T00:43:02.004Z,3.20
2024-02-20T00:45:29.933Z,3.17
2024-02-20T00:47:57.863Z,3.13
2024-02-20T00:50:26.131Z,3.11
2024-02-20T00:52:54.337Z,3.08
2024-02-20T00:55:22.672Z,3.06
2024-02-20T00:57:50.711Z,3.05
2024-02-20T01:00:18.942Z,3.02
2024-02-20T01:02:48.814Z,2.99
2024-02-20T01:05:17.717Z,2.98
2024-02-20T01:07:45.854Z,2.97
2024-02-20T01:10:14.071Z,2.96
2024-02-20T01:12:42.135Z,2.95
2024-02-20T01:15:10.290Z,2.95
2024-02-20T01:17:38.211Z,2.96
2024-02-20T01:20:07.696Z,2.97
2024-02-20T01:22:35.787Z,2.96
2024-02-20T01:25:05.091Z,2.94
2024-02-20T01:27:33.129Z,2.91
2024-02-20T01:30:01.035Z,2.89
2024-02-20T01:32:29.723Z,2.85
2024-02-20T01:34:58.128Z,2.81
2024-02-20T01:37:26.608Z,2.79
2024-02-20T01:39:54.558Z,2.79
2024-02-20T01:42:22.457Z,2.79
2024-02-20T01:44:50.278Z,2.80
2024-02-20T01:47:18.690Z,2.80
2024-02-20T01:49:47.746Z,2.82
2024-02-20T01:52:16.357Z,2.82
2024-02-20T01:54:44.765Z,2.81
2024-02-20T01:57:12.918Z,2.84
2024-02-20T01:59:41.124Z,2.86
2024-02-20T02:02:09.412Z,2.88
2024-02-20T02:04:37.977Z,2.89
2024-02-20T02:07:06.262Z,2.90
2024-02-20T02:09:34.219Z,2.93
2024-02-20T02:12:02.277Z,2.94
2024-02-20T02:14:30.084Z,2.95
2024-02-20T02:16:58.239Z,2.96
2024-02-20T02:19:26.260Z,2.94
2024-02-20T02:21:54.617Z,2.90
2024-02-20T02:24:22.846Z,2.88
2024-02-20T02:26:50.714Z,2.87
2024-02-20T02:29:18.999Z,2.89
2024-02-20T02:31:47.060Z,2.91
2024-02-20T02:34:15.603Z,2.94
2024-02-20T02:36:45.815Z,2.96
2024-02-20T02:39:14.036Z,2.98
2024-02-20T02:41:41.879Z,3.00
2024-02-20T02:44:09.913Z,3.01
2024-02-20T02:46:37.833Z,3.02
2024-02-20T02:49:07.085Z,3.03
2024-02-20T02:51:35.354Z,3.04
2024-02-20T02:54:03.629Z,3.04
2024-02-20T02:56:31.905Z,3.06
2024-02-20T02:59:04.079Z,3.08
2024-02-20T03:01:32.300Z,3.07
2024-02-20T03:04:01.580Z,3.04
2024-02-20T03:06:29.693Z,3.03
2024-02-20T03:08:57.753Z,3.00
2024-02-20T03:11:25.763Z,2.97
2024-02-20T03:13:53.829Z,2.96
2024-02-20T03:16:21.869Z,2.95
2024-02-20T03:18:50.061Z,2.94
2024-02-20T03:21:18.329Z,2.92
2024-02-20T03:23:46.825Z,2.91
2024-02-20T03:26:15.231Z,2.90
2024-02-20T03:28:44.917Z,2.88
2024-02-20T03:31:14.891Z,2.89
2024-02-20T03:33:43.128Z,2.92
2024-02-20T03:36:11.268Z,2.97
2024-02-20T03:38:39.235Z,3.02
2024-02-20T03:41:07.323Z,3.07
2024-02-20T03:43:38.689Z,3.11
2024-02-20T03:46:07.373Z,3.16
2024-02-20T03:48:35.681Z,3.20
2024-02-20T03:51:05.038Z,3.27
2024-02-20T03:53:32.925Z,3.35
2024-02-20T03:56:00.781Z,3.40
2024-02-20T03:58:28.717Z,3.46
2024-02-20T04:00:57.009Z,3.51
2024-02-20T04:03:25.036Z,3.55
2024-02-20T04:05:53.114Z,3.59
2024-02-20T04:08:21.335Z,3.63
2024-02-20T04:10:49.965Z,3.67
2024-02-20T04:13:18.103Z,3.74
2024-02-20T04:15:50.224Z,3.81
2024-02-20T04:18:18.592Z,3.84
2024-02-20T04:20:46.706Z,3.87
2024-02-20T04:23:14.895Z,3.91
2024-02-20T04:25:44.671Z,3.93
2024-02-20T04:28:13.339Z,3.92
2024-02-20T04:30:46.345Z,3.93
2024-02-20T04:33:14.501Z,3.91
2024-02-20T04:35:42.810Z,3.89
2024-02-20T04:38:11.592Z,3.89
2024-02-20T04:40:39.541Z,3.89
2024-02-20T04:43:07.509Z,3.86
2024-02-20T04:45:35.765Z,3.84
2024-02-20T04:48:03.989Z,3.80
2024-02-20T04:50:32.166Z,3.77
2024-02-20T04:53:00.125Z,3.73
2024-02-20T04:55:28.342Z,3.70
2024-02-20T04:57:56.514Z,3.67
2024-02-20T05:00:24.833Z,3.64
2024-02-20T05:02:52.825Z,3.63
2024-02-20T05:05:20.977Z,3.61
2024-02-20T05:07:50.296Z,3.62
2024-02-20T05:10:18.798Z,3.62
2024-02-20T05:12:46.850Z,3.59
2024-02-20T05:15:14.813Z,3.55
2024-02-20T05:17:42.923Z,3.53
2024-02-20T05:20:11.191Z,3.51
2024-02-20T05:22:39.639Z,3.49
2024-02-20T05:25:08.390Z,3.47
2024-02-20T05:27:36.425Z,3.46
2024-02-20T05:30:04.752Z,3.44
2024-02-20T05:32:33.100Z,3.43
2024-02-20T05:35:01.396Z,3.43
2024-02-20T05:37:29.552Z,3.40
2024-02-20T05:39:57.608Z,3.37
2024-02-20T05:42:25.829Z,3.34
2024-02-20T05:44:53.677Z,3.31
2024-02-20T05:47:21.536Z,3.28
2024-02-20T05:49:49.525Z,3.28
2024-02-20T05:52:17.716Z,3.28
2024-02-20T05:54:47.569Z,3.28
2024-02-20T05:57:15.484Z,3.28
2024-02-20T05:59:43.437Z,3.27
2024-02-20T06:02:11.523Z,3.29
2024-02-20T06:04:40.845Z,3.32
2024-02-20T06:07:09.361Z,3.35
2024-02-20T06:09:41.055Z,3.38
2024-02-20T06:12:11.250Z,3.43
2024-02-20T06:14:43.112Z,3.46
2024-02-20T06:17:11.986Z,3.49
2024-02-20T06:19:39.995Z,3.50
2024-02-20T06:22:08.339Z,3.53
2024-02-20T06:24:36.840Z,3.54
2024-02-20T06:27:08.409Z,3.56
2024-02-20T06:29:37.310Z,3.59
2024-02-20T06:32:06.112Z,3.62
2024-02-20T06:34:34.461Z,3.66
2024-02-20T06:37:03.066Z,3.70
2024-02-20T06:39:31.373Z,3.74
2024-02-20T06:41:59.561Z,3.79
2024-02-20T06:44:27.602Z,3.84
2024-02-20T06:46:55.800Z,3.89
2024-02-20T06:49:24.676Z,3.94
2024-02-20T06:51:52.925Z,3.98
2024-02-20T06:54:20.939Z,4.01
2024-02-20T06:56:48.840Z,4.04
2024-02-20T06:59:16.896Z,4.08
2024-02-20T07:01:45.061Z,4.10
2024-02-20T07:04:15.228Z,4.12
2024-02-20T07:06:43.667Z,4.10
2024-02-20T07:09:11.933Z,4.14
2024-02-20T07:11:39.824Z,4.17
2024-02-20T07:14:08.074Z,4.22
2024-02-20T07:16:36.773Z,4.27
2024-02-20T07:19:05.140Z,4.29
2024-02-20T07:21:33.475Z,4.27
2024-02-20T07:24:01.471Z,4.28
2024-02-20T07:26:29.427Z,4.35
2024-02-20T07:28:58.320Z,4.38
2024-02-20T07:31:26.996Z,4.40
2024-02-20T07:34:03.892Z,4.41
2024-02-20T07:36:38.553Z,4.44
2024-02-20T07:39:06.696Z,4.49
2024-02-20T07:41:35.996Z,4.55
2024-02-20T07:44:04.147Z,4.60
2024-02-20T07:46:33.943Z,4.66
2024-02-20T07:49:02.396Z,4.72
2024-02-20T07:51:31.605Z,4.77
2024-02-20T07:53:59.557Z,4.80
2024-02-20T07:56:28.988Z,4.83
2024-02-20T07:58:56.995Z,4.88
2024-02-20T08:01:26.521Z,4.92
2024-02-20T08:03:55.350Z,4.90
2024-02-20T08:06:32.367Z,4.94
2024-02-20T08:09:00.487Z,4.96
2024-02-20T08:11:29.298Z,4.99
2024-02-20T08:13:57.270Z,5.04
2024-02-20T08:16:25.390Z,5.06
2024-02-20T08:18:53.723Z,5.09
2024-02-20T08:21:21.924Z,5.14
2024-02-20T08:23:50.166Z,5.17
2024-02-20T08:26:18.573Z,5.18
2024-02-20T08:28:47.824Z,5.26
2024-02-20T08:31:20.313Z,5.36
2024-02-20T08:33:49.602Z,5.44
2024-02-20T08:36:19.026Z,5.52
2024-02-20T08:38:47.272Z,5.60
2024-02-20T08:41:15.141Z,5.68
2024-02-20T08:43:43.951Z,5.77
2024-02-20T08:46:11.884Z,5.84
2024-02-20T08:48:39.751Z,5.92
2024-02-20T08:51:07.861Z,6.00
2024-02-20T08:53:36.132Z,6.02
2024-02-20T08:56:04.696Z,6.05
2024-02-20T08:58:33.004Z,6.12
2024-02-20T09:01:02.830Z,6.16
2024-02-20T09:03:31.303Z,6.21
2024-02-20T09:05:59.645Z,6.26
2024-02-20T09:08:27.812Z,6.28
2024-02-20T09:10:55.953Z,6.25
2024-02-20T09:13:24.159Z,6.16
2024-02-20T09:15:53.227Z,6.10
2024-02-20T09:18:21.288Z,6.07
2024-02-20T09:20:50.268Z,6.05
2024-02-20T09:23:18.246Z,6.05
2024-02-20T09:25:47.702Z,6.04
2024-02-20T09:28:15.860Z,6.03
2024-02-20T09:30:43.886Z,6.03
2024-02-20T09:33:14.936Z,6.04
2024-02-20T09:35:43.077Z,6.03
2024-02-20T09:38:11.684Z,6.02
2024-02-20T09:40:39.929Z,6.05
2024-02-20T09:43:08.988Z,6.06
2024-02-20T09:45:41.080Z,6.06
2024-02-20T09:48:15.603Z,6.09
2024-02-20T09:50:44.043Z,6.11
2024-02-20T09:53:15.560Z,6.14
2024-02-20T09:55:45.464Z,6.17
2024-02-20T09:58:13.527Z,6.19
2024-02-20T10:00:41.806Z,6.17
2024-02-20T10:03:10.496Z,6.11
2024-02-20T10:05:44.164Z,6.11
2024-02-20T10:08:12.162Z,6.17
2024-02-20T10:10:41.973Z,6.21
2024-02-20T10:13:10.277Z,6.27
2024-02-20T10:15:38.364Z,6.35
2024-02-20T10:18:07.309Z,6.40
2024-02-20T10:20:36.032Z,6.45
2024-02-20T10:23:05.401Z,6.47
2024-02-20T10:25:33.387Z,6.46
2024-02-20T10:28:02.810Z,6.46
2024-02-20T10:30:31.723Z,6.49
2024-02-20T10:33:00.300Z,6.55
2024-02-20T10:35:28.889Z,6.61
2024-02-20T10:38:01.851Z,6.71
2024-02-20T10:40:30.824Z,6.83
2024-02-20T10:42:59.634Z,6.89
2024-02-20T10:45:29.006Z,6.94
2024-02-20T10:47:59.175Z,6.93
2024-02-20T10:50:27.700Z,6.91
2024-02-20T10:52:58.819Z,7.00
2024-02-20T10:55:32.644Z,7.04
2024-02-20T10:58:05.525Z,7.06
2024-02-20T11:00:38.467Z,7.10
2024-02-20T11:03:10.011Z,7.13
2024-02-20T11:05:38.539Z,7.18
2024-02-20T11:08:11.850Z,7.26
2024-02-20T11:10:41.859Z,7.31
2024-02-20T11:13:15.185Z,7.42
2024-02-20T11:15:43.720Z,7.52
2024-02-20T11:18:16.920Z,7.62
2024-02-20T11:20:45.880Z,7.67
2024-02-20T11:23:14.115Z,7.58
2024-02-20T11:25:45.005Z,7.55
2024-02-20T11:28:18.208Z,7.56
2024-02-20T11:30:47.458Z,7.53
2024-02-20T11:33:20.662Z,7.44
2024-02-20T11:35:50.441Z,7.39
2024-02-20T11:38:21.720Z,7.41
2024-02-20T11:40:50.312Z,7.40
2024-02-20T11:43:20.892Z,7.40
2024-02-20T11:45:51.468Z,7.38
2024-02-20T11:48:19.808Z,7.32
2024-02-20T11:50:48.306Z,7.29
2024-02-20T11:53:17.827Z,7.27
2024-02-20T11:55:55.652Z,7.22
2024-02-20T11:58:27.757Z,7.19
2024-02-20T12:01:05.664Z,7.15
2024-02-20T12:03:35.986Z,7.14
2024-02-20T12:06:06.639Z,7.15
2024-02-20T12:08:41.832Z,7.18
2024-02-20T12:11:12.726Z,7.21
2024-02-20T12:13:41.442Z,7.24
2024-02-20T12:16:24.483Z,7.27
2024-02-20T12:18:53.495Z,7.32
2024-02-20T12:21:26.160Z,7.37
2024-02-20T12:23:55.166Z,7.41
2024-02-20T12:26:23.987Z,7.39
2024-02-20T12:28:52.115Z,7.33
2024-02-20T12:31:24.928Z,7.39
2024-02-20T12:33:53.517Z,7.41
2024-02-20T12:36:21.996Z,7.41
2024-02-20T12:38:50.088Z,7.44
2024-02-20T12:41:18.151Z,7.55
2024-02-20T12:43:46.274Z,7.66
2024-02-20T12:46:14.682Z,7.79
2024-02-20T12:48:52.025Z,7.95
2024-02-20T12:51:20.360Z,8.08
2024-02-20T12:53:48.848Z,8.24
2024-02-20T12:56:17.017Z,8.41
2024-02-20T12:58:47.269Z,8.54
2024-02-20T13:01:16.540Z,8.73
2024-02-20T13:03:45.039Z,8.88
2024-02-20T13:06:13.217Z,8.99
2024-02-20T13:08:41.401Z,9.04
2024-02-20T13:11:10.933Z,9.17
2024-02-20T13:13:39.050Z,9.27
2024-02-20T13:16:07.768Z,9.29
2024-02-20T13:18:35.927Z,9.28
2024-02-20T13:21:06.686Z,9.25
2024-02-20T13:23:34.813Z,9.21
2024-02-20T13:26:02.796Z,9.16
2024-02-20T13:28:30.992Z,9.12
2024-02-20T13:30:59.451Z,9.10
2024-02-20T13:33:27.616Z,9.08
2024-02-20T13:35:55.643Z,9.05
2024-02-20T13:38:23.809Z,9.01
2024-02-20T13:40:52.945Z,8.93
2024-02-20T13:43:21.207Z,8.89
2024-02-20T13:45:53.857Z,8.85
2024-02-20T13:48:21.917Z,8.81
2024-02-20T13:50:50.506Z,8.76
2024-02-20T13:53:19.288Z,8.75
2024-02-20T13:55:48.871Z,8.77
2024-02-20T13:58:17.345Z,8.83
2024-02-20T14:00:45.699Z,8.91
2024-02-20T14:03:17.357Z,8.99
2024-02-20T14:05:46.249Z,9.06
2024-02-20T14:08:14.371Z,9.13
2024-02-20T14:10:42.630Z,9.19
2024-02-20T14:13:10.614Z,9.23
2024-02-20T14:15:38.979Z,9.27
2024-02-20T14:18:07.167Z,9.30
2024-02-20T14:20:36.357Z,9.33
2024-02-20T14:23:07.906Z,9.43
2024-02-20T14:25:36.483Z,9.47
2024-02-20T14:28:05.639Z,9.46
2024-02-20T14:30:40.997Z,9.41
2024-02-20T14:33:13.804Z,9.39
2024-02-20T14:35:42.010Z,9.36
2024-02-20T14:38:12.020Z,9.34
2024-02-20T14:40:40.624Z,9.32
2024-02-20T14:43:08.712Z,9.32
2024-02-20T14:45:36.539Z,9.31
2024-02-20T14:48:06.120Z,9.28
2024-02-20T14:50:34.308Z,9.23
2024-02-20T14:53:03.432Z,9.19
2024-02-20T14:55:32.545Z,9.15
2024-02-20T14:58:01.207Z,9.11
2024-02-20T15:00:29.024Z,9.06
2024-02-20T15:02:57.653Z,8.93
2024-02-20T15:05:26.209Z,8.84
2024-02-20T15:07:54.322Z,8.77
2024-02-20T15:10:22.673Z,8.70
2024-02-20T15:12:50.637Z,8.62
2024-02-20T15:15:19.306Z,8.53
2024-02-20T15:17:47.620Z,8.47
2024-02-20T15:20:16.072Z,8.41
2024-02-20T15:22:44.179Z,8.33
2024-02-20T15:25:17.230Z,8.28
2024-02-20T15:27:48.480Z,8.19
2024-02-20T15:30:17.688Z,8.10
2024-02-20T15:32:47.574Z,7.94
2024-02-20T15:35:16.522Z,7.80
2024-02-20T15:37:46.776Z,7.67
2024-02-20T15:40:15.728Z,7.64
2024-02-20T15:42:46.094Z,7.45
2024-02-20T15:45:14.379Z,7.22
2024-02-20T15:47:42.906Z,7.11
2024-02-20T15:50:12.158Z,6.98
2024-02-20T15:52:42.286Z,6.98
2024-02-20T15:55:13.059Z,6.99
2024-02-20T15:57:41.372Z,7.00
2024-02-20T16:00:10.173Z,7.00
2024-02-20T16:02:43.632Z,7.00
2024-02-20T16:05:11.953Z,7.00
2024-02-20T16:07:40.449Z,6.99
2024-02-20T16:10:08.839Z,6.97
2024-02-20T16:12:38.443Z,6.95
2024-02-20T16:15:07.813Z,6.93
2024-02-20T16:17:39.605Z,6.91
2024-02-20T16:20:08.518Z,6.89
2024-02-20T16:22:37.113Z,6.86
2024-02-20T16:25:08.336Z,6.82
2024-02-20T16:27:36.743Z,6.78
2024-02-20T16:30:06.380Z,6.72
2024-02-20T16:32:34.476Z,6.66
2024-02-20T16:35:05.042Z,6.59
2024-02-20T16:37:33.260Z,6.52
2024-02-20T16:40:01.358Z,6.45
2024-02-20T16:42:29.299Z,6.41
2024-02-20T16:44:57.322Z,6.36
2024-02-20T16:47:25.185Z,6.30
2024-02-20T16:49:53.292Z,6.24
2024-02-20T16:52:21.332Z,6.17
2024-02-20T16:54:49.490Z,6.12
2024-02-20T16:57:17.779Z,6.10
2024-02-20T16:59:45.658Z,6.06
2024-02-20T17:02:13.758Z,6.04
2024-02-20T17:04:42.585Z,5.99
2024-02-20T17:07:11.141Z,5.95
2024-02-20T17:09:39.985Z,5.91
2024-02-20T17:12:07.963Z,5.88
2024-02-20T17:14:36.044Z,5.84
2024-02-20T17:17:04.480Z,5.80
2024-02-20T17:19:32.679Z,5.75
2024-02-20T17:22:00.784Z,5.69
2024-02-20T17:24:28.973Z,5.64
2024-02-20T17:26:58.790Z,5.59
2024-02-20T17:29:28.590Z,5.53
2024-02-20T17:31:57.316Z,5.47
2024-02-20T17:34:26.201Z,5.42
2024-02-20T17:36:56.389Z,5.38
2024-02-20T17:39:24.483Z,5.34
2024-02-20T17:41:52.544Z,5.30
2024-02-20T17:44:20.456Z,5.29
2024-02-20T17:46:52.105Z,5.28
2024-02-20T17:49:21.237Z,5.27
2024-02-20T17:51:51.242Z,5.26
2024-02-20T17:54:19.130Z,5.25
2024-02-20T17:56:47.435Z,5.26
2024-02-20T17:59:15.761Z,5.24
2024-02-20T18:01:45.170Z,5.24
2024-02-20T18:04:13.228Z,5.23
2024-02-20T18:06:41.900Z,5.23
2024-02-20T18:09:11.153Z,5.20
2024-02-20T18:11:39.125Z,5.17
2024-02-20T18:14:07.334Z,5.17
2024-02-20T18:16:35.509Z,5.18
2024-02-20T18:19:03.742Z,5.15
2024-02-20T18:21:31.983Z,5.13
2024-02-20T18:24:00.771Z,5.13
2024-02-20T18:26:30.863Z,5.11
2024-02-20T18:28:59.740Z,5.09
2024-02-20T18:31:28.143Z,5.05
2024-02-20T18:33:56.193Z,4.96
2024-02-20T18:36:24.064Z,4.86
2024-02-20T18:38:52.684Z,4.78
2024-02-20T18:41:20.794Z,4.69
2024-02-20T18:43:49.022Z,4.63
2024-02-20T18:46:17.439Z,4.54
2024-02-20T18:48:45.501Z,4.46
2024-02-20T18:51:13.569Z,4.38
2024-02-20T18:53:41.389Z,4.28
2024-02-20T18:56:09.325Z,4.21
2024-02-20T18:58:37.350Z,4.15
2024-02-20T19:01:05.348Z,4.10
2024-02-20T19:03:33.698Z,4.05
2024-02-20T19:06:01.894Z,4.00
2024-02-20T19:08:34.804Z,3.96
2024-02-20T19:11:03.277Z,3.93
2024-02-20T19:13:31.750Z,3.88
2024-02-20T19:15:59.747Z,3.83
2024-02-20T19:18:27.893Z,3.76
2024-02-20T19:20:55.959Z,3.69
2024-02-20T19:23:24.053Z,3.64
2024-02-20T19:25:52.339Z,3.60
2024-02-20T19:28:20.507Z,3.55
2024-02-20T19:30:48.538Z,3.50
2024-02-20T19:33:16.803Z,3.44
2024-02-20T19:35:46.708Z,3.39
2024-02-20T19:38:19.290Z,3.34
2024-02-20T19:40:50.116Z,3.30
2024-02-20T19:43:19.372Z,3.26
2024-02-20T19:45:47.834Z,3.21
2024-02-20T19:48:15.941Z,3.16
2024-02-20T19:50:44.608Z,3.11
2024-02-20T19:53:16.452Z,3.06
2024-02-20T19:55:44.599Z,3.02
2024-02-20T19:58:15.898Z,2.99
2024-02-20T20:00:47.181Z,2.94
2024-02-20T20:03:15.148Z,2.90
2024-02-20T20:05:44.013Z,2.86
2024-02-20T20:08:12.265Z,2.82
2024-02-20T20:10:40.529Z,2.76
2024-02-20T20:13:10.688Z,2.70
2024-02-20T20:15:38.693Z,2.65
2024-02-20T20:18:07.246Z,2.61
2024-02-20T20:20:35.485Z,2.56
2024-02-20T20:23:03.861Z,2.53
2024-02-20T20:25:32.020Z,2.50
2024-02-20T20:28:00.044Z,2.48
2024-02-20T20:30:28.194Z,2.45
2024-02-20T20:32:56.212Z,2.42
2024-02-20T20:35:27.860Z,2.38
2024-02-20T20:37:57.766Z,2.35
2024-02-20T20:40:26.172Z,2.31
2024-02-20T20:42:54.374Z,2.28
2024-02-20T20:45:22.529Z,2.24
2024-02-20T20:47:50.503Z,2.20
2024-02-20T20:50:18.767Z,2.17
2024-02-20T20:52:46.925Z,2.15
2024-02-20T20:55:15.405Z,2.14
2024-02-20T20:57:43.356Z,2.13
2024-02-20T21:00:14.382Z,2.13
2024-02-20T21:02:42.435Z,2.14
2024-02-20T21:05:10.480Z,2.12
2024-02-20T21:07:38.629Z,2.11
2024-02-20T21:10:07.034Z,2.13
2024-02-20T21:12:35.005Z,2.12
2024-02-20T21:15:04.850Z,2.14
2024-02-20T21:17:33.063Z,2.16
2024-02-20T21:20:01.217Z,2.18
2024-02-20T21:22:29.559Z,2.20
2024-02-20T21:24:57.488Z,2.23
2024-02-20T21:27:25.385Z,2.25
2024-02-20T21:29:53.484Z,2.27
2024-02-20T21:32:21.476Z,2.29
2024-02-20T21:34:49.468Z,2.31
2024-02-20T21:37:18.476Z,2.32
2024-02-20T21:39:46.643Z,2.29
2024-02-20T21:42:15.069Z,2.23
2024-02-20T21:44:43.333Z,2.19
2024-02-20T21:47:11.617Z,2.20
2024-02-20T21:49:39.551Z,2.21
2024-02-20T21:52:08.987Z,2.20
2024-02-20T21:54:37.093Z,2.16
2024-02-20T21:57:06.149Z,2.09
2024-02-20T21:59:34.215Z,2.06
2024-02-20T22:02:02.239Z,2.04
2024-02-20T22:04:30.351Z,2.02
2024-02-20T22:06:58.421Z,1.97
2024-02-20T22:09:27.486Z,1.92
2024-02-20T22:11:56.517Z,1.91
2024-02-20T22:14:25.064Z,1.87
2024-02-20T22:16:53.150Z,1.84
2024-02-20T22:19:21.573Z,1.80
2024-02-20T22:21:49.876Z,1.78
2024-02-20T22:24:18.015Z,1.74
2024-02-20T22:26:45.917Z,1.72
2024-02-20T22:29:13.732Z,1.68
2024-02-20T22:31:41.852Z,1.65
2024-02-20T22:34:09.983Z,1.63
2024-02-20T22:36:38.070Z,1.57
2024-02-20T22:39:06.229Z,1.54
2024-02-20T22:41:34.431Z,1.50
2024-02-20T22:44:02.594Z,1.47
2024-02-20T22:46:30.485Z,1.45
2024-02-20T22:48:58.637Z,1.40
2024-02-20T22:51:27.151Z,1.37
2024-02-20T22:53:55.185Z,1.33
2024-02-20T22:56:24.869Z,1.31
2024-02-20T22:58:53.349Z,1.27
2024-02-20T23:01:21.439Z,1.24
2024-02-20T23:03:50.049Z,1.23
2024-02-20T23:06:18.093Z,1.19
2024-02-20T23:08:46.386Z,1.14
2024-02-20T23:11:14.367Z,1.11
2024-02-20T23:13:42.530Z,1.06
2024-02-20T23:16:10.812Z,1.04
2024-02-20T23:18:38.838Z,1.02
2024-02-20T23:21:07.252Z,1.03
2024-02-20T23:23:35.322Z,0.98
2024-02-20T23:26:03.285Z,0.97
2024-02-20T23:28:31.331Z,0.97
2024-02-20T23:30:59.643Z,0.96
2024-02-20T23:33:27.818Z,0.96
2024-02-20T23:35:55.835Z,0.95
2024-02-20T23:38:23.644Z,0.92
2024-02-20T23:40:53.308Z,0.90
2024-02-20T23:43:21.727Z,0.88
2024-02-20T23:45:50.021Z,0.85
2024-02-20T23:48:18.862Z,0.85
2024-02-20T23:50:47.235Z,0.82
2024-02-20T23:53:15.366Z,0.81
2024-02-20T23:55:43.715Z,0.81
2024-02-20T23:58:11.745Z,0.79
